Boston, Texas
Current Conditions -  °F | °C
As of 12:53 AM on Saturday 25 Oct 2014 (Local Time) from KTXK Reporting Station
Clear Clear  
Wind Chill: 16°   Ceiling: Unl
Heat Index: 16°   Visibility: 8mi
Dew Point: 14°   Wind: 5mph
Humidity: 90%   Direction: 210°SSW
Pressure: 30.11"   Gusts: NA
Location:  33.4799°N, 94.4582°W
Report Text: KTXK 250553Z AUTO 21004KT 8SM CLR 16/14 A3011 RMK AO2 SLP194 T01560139 10217 20150 402500089 58001
Loading
Personal Weather Stations






























Interactive Weather Map
Tropical Storm Tracking
New forecast layout! Learn more

10-Day Weather Forecast

Advertisements
Track Severe Weather on mobile